Airfield :







YOU CAN JOIN US ON...

 
LOGIN :

Register | Disclaimer

   EN    FR    IT 

 









Legend :    VFR   Marginal VFR   IFR   Intensive IFR   Very Intensive IFR
Visi :
Ceiling :
>= 8 km
>= 3000ft
5 to 8 km
1000 to 3000 ft
1500m to 5 km
500 to 1000 ft
800 to 1500m
200 to 500 ft
< 800m
< 200 ft
Symbols :   Thunderstorms  Fog  Heavy snow  Heavy precipitations  Wind > 20 kt







- Airport Elevation : 488 ft
- IATA code : EEN


KEEN - Dillant Hopkins

CURRENT METAR :
  • 160156Z AUTO 22011G16KT 10SM OVC065 23/11 A2989 RMK AO2 SLP126 T02280106 PNO $

EXPIRED METARs :
  • 160056Z AUTO 23010G20KT 210V280 10SM BKN085 OVC110 22/11 A2988 RMK AO2 RAB05E17B39E51 SLP120 T02170111 PNO $
  • 152356Z AUTO 19004KT 8SM BKN090 OVC120 23/11 A2988 RMK AO2 SLP122 6//// T02280111 10267 20228 55004 PNO $

TAF N/A
KZBW FIR / North America



MET'MAP, your aeronautical weather chart ! - Copyright ORBIFLY December 2007 - Disclaimer

ORBIFLY MET'MAP TEAM :

Programming & Development : Alexandra Zaïnal
Concept & Development : Baudouin d'Aumeries
Co-Development & Prog : Marc-Olivier Méhu
Technical & hardware support : Manuel Goepfert

Contact : metmap@orbifly.com




SOURCES & CREDITS :

   NOAA